createdAt,value
2019-05-07T00:01:16.831Z,11.20
2019-05-07T00:03:46.141Z,11.20
2019-05-07T00:06:15.871Z,11.30
2019-05-07T00:08:45.180Z,11.20
2019-05-07T00:11:14.500Z,11.10
2019-05-07T00:13:46.932Z,11.10
2019-05-07T00:16:16.567Z,11.20
2019-05-07T00:18:46.941Z,11.20
2019-05-07T00:21:23.160Z,11.20
2019-05-07T00:23:52.655Z,11.20
2019-05-07T00:26:22.655Z,11.20
2019-05-07T00:28:52.794Z,11.20
2019-05-07T00:31:23.314Z,11.30
2019-05-07T00:33:53.934Z,11.20
2019-05-07T00:36:36.700Z,11.20
2019-05-07T00:39:08.828Z,11.20
2019-05-07T00:41:42.827Z,11.10
2019-05-07T00:44:15.112Z,11.10
2019-05-07T00:46:45.232Z,11.10
2019-05-07T00:49:14.407Z,11.10
2019-05-07T00:51:43.547Z,11.00
2019-05-07T00:54:17.144Z,11.00
2019-05-07T00:56:51.986Z,11.00
2019-05-07T00:59:22.877Z,11.00
2019-05-07T01:01:52.843Z,8.80
2019-05-07T01:04:23.061Z,10.90
2019-05-07T01:06:53.679Z,10.90
2019-05-07T01:09:27.856Z,10.90
2019-05-07T01:12:03.247Z,10.80
2019-05-07T01:14:32.689Z,10.90
2019-05-07T01:17:02.524Z,10.80
2019-05-07T01:19:32.846Z,10.80
2019-05-07T01:22:03.173Z,10.80
2019-05-07T01:24:32.373Z,10.70
2019-05-07T01:27:02.201Z,10.80
2019-05-07T01:29:34.109Z,11.70
2019-05-07T01:32:07.578Z,11.80
2019-05-07T01:34:38.096Z,10.70
2019-05-07T01:37:08.800Z,10.80
2019-05-07T01:39:38.406Z,10.70
2019-05-07T01:42:12.587Z,10.70
2019-05-07T01:44:41.995Z,10.80
2019-05-07T01:47:13.059Z,10.80
2019-05-07T01:49:42.319Z,12.10
2019-05-07T01:52:13.305Z,10.80
2019-05-07T01:54:42.770Z,10.70
2019-05-07T01:57:12.374Z,10.60
2019-05-07T01:59:43.417Z,10.70
2019-05-07T02:02:22.952Z,10.60
2019-05-07T02:04:59.514Z,10.60
2019-05-07T02:07:37.115Z,10.60
2019-05-07T02:10:08.401Z,10.50
2019-05-07T02:12:38.511Z,10.60
2019-05-07T02:15:11.956Z,10.60
2019-05-07T02:17:46.766Z,10.60
2019-05-07T02:20:17.365Z,10.50
2019-05-07T02:22:47.808Z,10.50
2019-05-07T02:25:17.118Z,10.50
2019-05-07T02:27:46.244Z,10.40
2019-05-07T02:30:16.036Z,10.40
2019-05-07T02:32:47.737Z,10.50
2019-05-07T02:35:16.945Z,10.50
2019-05-07T02:37:56.616Z,10.50
2019-05-07T02:40:25.522Z,10.40
2019-05-07T02:42:55.872Z,10.40
2019-05-07T02:45:44.029Z,10.40
2019-05-07T02:48:12.957Z,10.30
2019-05-07T02:50:53.752Z,10.40
2019-05-07T02:53:35.719Z,12.40
2019-05-07T02:56:06.123Z,10.10
2019-05-07T02:58:35.330Z,10.30
2019-05-07T03:01:13.823Z,10.00
2019-05-07T03:03:44.986Z,10.00
2019-05-07T03:06:13.736Z,10.10
2019-05-07T03:08:44.138Z,10.10
2019-05-07T03:11:14.329Z,10.10
2019-05-07T03:13:44.045Z,10.10
2019-05-07T03:16:13.274Z,10.20
2019-05-07T03:18:43.807Z,10.30
2019-05-07T03:21:18.611Z,10.30
2019-05-07T03:23:53.977Z,10.30
2019-05-07T03:26:26.891Z,10.30
2019-05-07T03:28:57.411Z,10.10
2019-05-07T03:31:35.670Z,10.10
2019-05-07T03:34:07.068Z,10.10
2019-05-07T03:36:48.298Z,10.10
2019-05-07T03:39:17.044Z,10.10
2019-05-07T03:41:46.183Z,10.00
2019-05-07T03:44:16.806Z,10.10
2019-05-07T03:47:01.133Z,10.20
2019-05-07T03:49:37.213Z,10.00
2019-05-07T03:52:09.334Z,10.10
2019-05-07T03:54:43.096Z,10.00
2019-05-07T03:57:15.495Z,10.10
2019-05-07T03:59:43.735Z,10.10
2019-05-07T04:02:15.547Z,10.20
2019-05-07T04:04:46.207Z,10.20
2019-05-07T04:07:15.335Z,10.20
2019-05-07T04:09:44.245Z,10.20
2019-05-07T04:12:14.569Z,10.10
2019-05-07T04:14:43.541Z,10.20
2019-05-07T04:17:17.241Z,10.20
2019-05-07T04:19:46.247Z,10.10
2019-05-07T04:22:16.468Z,10.20
2019-05-07T04:25:04.451Z,10.20
2019-05-07T04:27:38.492Z,10.20
2019-05-07T04:30:08.178Z,10.10
2019-05-07T04:32:38.946Z,10.20
2019-05-07T04:35:12.711Z,10.30
2019-05-07T04:37:42.768Z,10.30
2019-05-07T04:40:13.394Z,10.30
2019-05-07T04:42:42.859Z,10.30
2019-05-07T04:45:13.592Z,10.40
2019-05-07T04:47:47.256Z,10.40
2019-05-07T04:50:37.232Z,9.20
2019-05-07T04:52:48.611Z,10.40
2019-05-07T04:55:19.207Z,7.80
2019-05-07T04:57:53.333Z,10.40
2019-05-07T05:00:23.269Z,10.50
2019-05-07T05:02:54.023Z,10.50
2019-05-07T05:09:03.018Z,10.60
2019-05-07T05:11:33.702Z,10.30
2019-05-07T05:14:09.306Z,10.50
2019-05-07T05:16:43.135Z,10.60
2019-05-07T05:19:23.002Z,10.60
2019-05-07T05:22:02.041Z,10.60
2019-05-07T05:24:34.095Z,10.60
2019-05-07T05:27:09.471Z,8.30
2019-05-07T05:29:43.064Z,10.50
2019-05-07T05:32:13.211Z,10.50
2019-05-07T05:34:51.982Z,10.70
2019-05-07T05:37:22.639Z,10.80
2019-05-07T05:40:05.602Z,10.80
2019-05-07T05:42:26.261Z,10.90
2019-05-07T05:45:03.114Z,10.90
2019-05-07T05:47:33.862Z,11.00
2019-05-07T05:50:06.159Z,11.00
2019-05-07T05:52:39.405Z,11.00
2019-05-07T05:55:12.015Z,11.10
2019-05-07T05:57:44.445Z,11.20
2019-05-07T06:00:28.374Z,11.40
2019-05-07T06:03:05.884Z,11.40
2019-05-07T06:05:47.164Z,11.50
2019-05-07T06:08:32.581Z,11.70
2019-05-07T06:11:21.898Z,11.80
2019-05-07T06:14:12.966Z,12.00
2019-05-07T06:17:02.098Z,12.10
2019-05-07T06:19:34.192Z,12.10
2019-05-07T06:22:09.392Z,12.30
2019-05-07T06:24:52.113Z,12.30
2019-05-07T06:27:37.355Z,12.40
2019-05-07T06:30:22.526Z,12.50
2019-05-07T06:32:52.342Z,12.50
2019-05-07T06:35:32.445Z,12.50
2019-05-07T06:38:13.801Z,12.60
2019-05-07T06:40:51.952Z,12.70
2019-05-07T06:43:45.932Z,12.70
2019-05-07T06:46:16.337Z,12.90
2019-05-07T06:48:46.268Z,12.90
2019-05-07T06:51:17.573Z,13.00
2019-05-07T06:56:42.116Z,13.30
2019-05-07T06:59:14.679Z,13.50
2019-05-07T07:01:54.031Z,13.30
2019-05-07T07:04:43.824Z,13.40
2019-05-07T07:07:29.860Z,13.30
2019-05-07T07:10:03.307Z,12.90
2019-05-07T07:12:33.299Z,13.00
2019-05-07T07:15:06.961Z,13.20
2019-05-07T07:17:41.853Z,12.90
2019-05-07T07:20:21.863Z,12.10
2019-05-07T07:22:56.166Z,12.50
2019-05-07T07:25:33.371Z,12.40
2019-05-07T07:28:12.103Z,12.40
2019-05-07T07:30:45.188Z,12.70
2019-05-07T07:33:22.411Z,12.90
2019-05-07T07:35:57.486Z,13.20
2019-05-07T07:38:34.630Z,13.70
2019-05-07T07:41:15.687Z,13.90
2019-05-07T07:43:45.774Z,13.60
2019-05-07T07:46:18.866Z,13.50
2019-05-07T07:48:48.197Z,13.30
2019-05-07T07:51:17.497Z,13.30
2019-05-07T07:53:53.932Z,13.50
2019-05-07T07:56:56.354Z,13.80
2019-05-07T07:59:43.381Z,13.80
2019-05-07T08:02:17.775Z,14.10
2019-05-07T08:05:12.385Z,14.60
2019-05-07T08:10:39.519Z,15.00
2019-05-07T08:13:12.239Z,13.20
2019-05-07T08:15:45.837Z,14.30
2019-05-07T08:18:22.250Z,14.40
2019-05-07T08:20:56.119Z,14.50
2019-05-07T08:23:31.790Z,14.00
2019-05-07T08:26:02.529Z,13.80
2019-05-07T08:28:33.238Z,14.00
2019-05-07T08:31:23.259Z,14.10
2019-05-07T08:34:07.684Z,14.60
2019-05-07T08:36:42.008Z,15.10
2019-05-07T08:39:13.582Z,15.00
2019-05-07T08:41:44.697Z,14.20
2019-05-07T08:44:35.848Z,14.10
2019-05-07T08:47:22.904Z,14.50
2019-05-07T08:50:02.874Z,14.90
2019-05-07T08:52:36.740Z,14.40
2019-05-07T08:55:13.710Z,15.50
2019-05-07T08:57:46.005Z,15.50
2019-05-07T09:00:36.030Z,15.50
2019-05-07T09:03:04.959Z,15.20
2019-05-07T09:05:37.945Z,14.70
2019-05-07T09:08:09.158Z,15.10
2019-05-07T09:10:42.946Z,15.30
2019-05-07T09:13:17.547Z,15.10
2019-05-07T09:15:55.706Z,14.90
2019-05-07T09:18:28.127Z,15.10
2019-05-07T09:20:57.352Z,15.60
2019-05-07T09:23:31.697Z,15.30
2019-05-07T09:26:02.752Z,14.80
2019-05-07T09:28:54.222Z,14.40
2019-05-07T09:32:22.631Z,14.10
2019-05-07T09:34:56.934Z,14.00
2019-05-07T09:38:17.575Z,15.00
2019-05-07T09:40:47.292Z,15.50
2019-05-07T09:44:07.485Z,15.90
2019-05-07T09:46:40.091Z,15.70
2019-05-07T09:49:46.670Z,16.00
2019-05-07T09:52:25.079Z,16.10
2019-05-07T09:55:32.588Z,15.10
2019-05-07T09:58:35.727Z,13.70
2019-05-07T10:01:32.578Z,14.00
2019-05-07T10:04:02.768Z,14.60
2019-05-07T10:07:14.967Z,15.20
2019-05-07T10:09:44.309Z,15.10
2019-05-07T10:13:12.280Z,15.30
2019-05-07T10:15:47.787Z,15.60
2019-05-07T10:18:47.432Z,16.40
2019-05-07T10:21:18.282Z,16.90
2019-05-07T10:24:26.040Z,17.00
2019-05-07T10:27:12.487Z,16.90
2019-05-07T10:30:33.384Z,16.90
2019-05-07T10:33:04.867Z,16.10
2019-05-07T10:36:18.357Z,16.30
2019-05-07T10:38:49.070Z,16.60
2019-05-07T10:41:57.815Z,16.80
2019-05-07T10:44:28.498Z,16.60
2019-05-07T10:47:48.741Z,16.60
2019-05-07T10:50:38.719Z,16.90
2019-05-07T10:53:36.806Z,16.70
2019-05-07T10:56:16.895Z,16.40
2019-05-07T10:59:27.012Z,16.50
2019-05-07T11:05:08.900Z,16.20
2019-05-07T11:07:38.283Z,16.60
2019-05-07T11:43:57.562Z,14.60
2019-05-07T11:46:41.591Z,15.30
2019-05-07T11:49:56.970Z,15.70
2019-05-07T11:52:35.192Z,15.90
2019-05-07T11:55:03.975Z,16.40
2019-05-07T11:57:33.587Z,16.80
2019-05-07T12:00:08.625Z,17.10
2019-05-07T12:03:19.442Z,17.40
2019-05-07T12:05:54.067Z,17.20
2019-05-07T13:08:48.803Z,17.40
2019-05-07T13:11:57.475Z,17.50
2019-05-07T13:14:34.317Z,17.80
2019-05-07T13:24:22.739Z,17.80
2019-05-07T13:26:53.603Z,18.10
2019-05-07T13:29:24.405Z,18.40
2019-05-07T13:32:02.833Z,18.60
2019-05-07T13:52:03.153Z,17.90
2019-05-07T13:54:29.674Z,18.00
2019-05-07T13:57:52.458Z,16.30
